Skip to main content

NOAA/GLERL Met Station at Muskegon, MI

Previous 5 days (top of hour only)
See also Previous 3 Hours (2 minute increments)
Jump down to Data
Switch to [English][Metric]
Zoom: Click and drag, Pan: shift-click and drag, Unzoom: double-click, Unzoom All






Note: Speed = mean wind during 2-minute period at top of hour,
Gust = max wind during 2-minute period at top of hour,
Peak = max wind during entire hour.
• See also 5-day windrose plot


NOAA/GLERL Met Station at Muskegon, MI

Previous 5 days (top of hour only)
See also Previous 3 Hours (2 minute increments)
Jump up to Graphs
Switch to [English][Metric]
                  Wind  Wind  Wind   Air   Dew   Rel     Sta   PAR
                   Spd   Gst   Dir  Temp    Pt   Hum    Pres uE/m2/
YYYY-MM-DD   EDT   kts   kts   deg     F     F     %   in Hg   sec
2017-03-23 12:00   8.9  10.9   126  35.4  13.9  40.9   29.78  1185
2017-03-23 11:00   6.0   9.3   144  33.8  14.0  43.8   29.81   704
2017-03-23 10:00   8.7  12.1   150  31.5  14.9  50.1   29.83   588
2017-03-23 09:00   6.0   7.6   164  29.5  15.3  55.2   29.85  1203
2017-03-23 08:00   8.0  11.3   158  27.1  14.5  58.7   29.84    55
2017-03-23 07:00   9.7  11.7   168  27.7  15.1  58.8   29.83     2
2017-03-23 06:00   7.8  10.5   160  27.0  13.6  56.8   29.83     2
2017-03-23 05:00   7.8   9.7   152  27.3  12.8  54.0   29.83     2
2017-03-23 04:00   9.9  12.1   129  27.1  14.8  59.4   29.84     2
2017-03-23 03:00   8.7  10.1   110  27.3  18.5  69.2   29.86     2
2017-03-23 02:00   6.6   7.6    99  26.4  18.9  73.1   29.87     2
2017-03-23 01:00   7.0   9.7   104  27.9  17.6  65.1   29.88     2
2017-03-23 00:00   6.6   9.3    92  27.7  17.4  64.9   29.88     2
2017-03-22 23:00   4.7   5.1    76  26.4  16.2  64.9   29.88     2
2017-03-22 22:00   2.7   2.9    55  27.3  16.0  62.0   29.88     2
2017-03-22 21:00   3.1   3.7    41  27.9  15.6  59.7   29.89     2
2017-03-22 20:00   6.0   8.0   353  28.8  17.5  62.4   29.89    30
2017-03-22 19:00   8.6   9.7   337  30.4  17.9  59.4   29.90   778
2017-03-22 18:00   9.5  11.7   339  31.1  17.1  55.9   29.92  1731
2017-03-22 17:00   9.3  10.1   326  30.9  16.1  53.9   29.92  1952
2017-03-22 16:00  10.3  11.9   327  30.2  15.8  54.8   29.93  1487
2017-03-22 15:00   8.6  10.3   302  29.1  15.7  57.0   29.95  2054
2017-03-22 14:00   8.9  10.1   279  28.2  14.4  55.8   29.96  2067
2017-03-22 13:00   4.3   5.8    68  32.7   8.6  36.0   29.96  2033
2017-03-22 12:00   5.6   7.4   127  28.8   9.2  43.5   29.96  1974
2017-03-22 11:00   6.0   7.0    56  27.9   9.2  45.1   29.96  1868
2017-03-22 10:00   7.2  10.5    52  25.3   8.6  48.8   29.94  1667
2017-03-22 09:00   5.1   7.2    43  24.6   9.6  52.4   29.93  1226
2017-03-22 08:00   7.0   8.2    49  20.5   9.5  62.1   29.91    78
2017-03-22 07:00   7.4   8.9    30  21.2   9.5  60.2   29.90     2
2017-03-22 06:00   5.4   6.6    40  21.0  10.2  62.7   29.87     2
2017-03-22 05:00   5.6   6.2    57  21.6   9.8  60.2   29.86     2
2017-03-22 04:00   4.5   5.4    47  22.1   9.9  59.1   29.86     2
2017-03-22 03:00   8.0   9.5    38  22.8   9.4  56.2   29.84     2
2017-03-22 02:00  11.5  14.6    37  23.7   9.5  54.3   29.83     2
2017-03-22 01:00  11.9  17.1    27  24.8  10.0  53.1   29.80     2
2017-03-22 00:00  11.9  15.6    32  25.7  10.1  51.2   29.78     2
2017-03-21 23:00  17.7  25.7    45  27.3  11.3  50.7   29.75     2
2017-03-21 22:00   7.4  10.3    33  28.8  15.6  57.5   29.72     2
2017-03-21 21:00  10.1  14.0    41  30.7  17.1  56.6   29.68     2
2017-03-21 20:00  14.4  18.3    40  34.0  18.1  51.8   29.64    31
2017-03-21 19:00   9.7  19.2    29  40.1  18.7  41.8   29.60  1143
2017-03-21 18:00  15.0  22.2    30  41.0  18.3  39.6   29.59  1687
2017-03-21 17:00  14.0  21.4     2  41.4  18.0  38.6   29.59  1904
2017-03-21 16:00  20.4  27.0    18  40.1  18.9  42.2   29.57  1393
2017-03-21 15:00  26.2  33.0   344  38.1  27.1  64.2   29.55  1471
2017-03-21 14:00  25.5  29.2   345  38.5  26.4  61.5   29.55  1985
2017-03-21 13:00  24.9  28.6   344  38.8  27.1  62.3   29.54  2088
2017-03-21 12:00  23.3  26.2   348  39.6  29.2  66.2   29.53  2010
2017-03-21 11:00  17.3  19.6   347  39.2  31.0  72.0   29.52  1945
2017-03-21 10:00  10.1  12.4   351  39.2  32.2  75.6   29.50  1635
2017-03-21 09:00  12.8  14.6   354  38.7  32.9  79.5   29.49  1176
2017-03-21 08:00   4.9   5.6   297  35.1  34.0  95.7   29.47    42
2017-03-21 07:00   4.3   4.5   288  34.3  33.6  97.1   29.46     2
2017-03-21 06:00   4.3   4.3   330  35.1  34.1  96.1   29.46     2
2017-03-21 05:00   7.8   7.8   336  34.7  33.2  94.1   29.46     2
2017-03-21 04:00   1.4   1.9    84  35.4  32.6  89.5   29.46     2
2017-03-21 03:00   3.5   4.7     2  36.5  35.2  95.0   29.46     2
2017-03-21 02:00   5.2   5.8   358  36.3  35.2  95.8   29.45     2
2017-03-21 01:00   5.2   6.2   347  36.9  35.4  94.5   29.44     2
2017-03-21 00:00   9.3  10.1   356  37.4  35.6  93.1   29.44     2
2017-03-20 23:00   4.7   7.8    36  42.6  36.7  79.4   29.41     2
2017-03-20 22:00   5.6   8.2    24  43.9  37.1  76.8   29.42     2
2017-03-20 21:00   8.0   9.5   348  39.4  36.8  90.3   29.41     2
2017-03-20 20:00  10.5  11.5   359  37.9  36.0  92.7   29.39     8
2017-03-20 19:00  17.5  18.5   343  38.7  36.0  90.1   29.38   123
2017-03-20 18:00  11.5  12.4   330  41.0  36.3  83.3   29.36  1587
2017-03-20 17:00  13.8  15.4   336  40.8  36.4  84.0   29.36   871
2017-03-20 16:00   8.7   8.9   337  42.6  36.9  79.9   29.38  1444
2017-03-20 15:00   4.7   5.2   314  42.8  36.8  79.0   29.41  2201
2017-03-20 14:00   0.8   1.4   168  44.4  36.5  73.5   29.41  2551
2017-03-20 13:00   2.9   2.9   231  40.5  35.9  83.7   29.42  1234
2017-03-20 12:00   6.6   6.8   209  40.8  35.9  82.4   29.41  1105
2017-03-20 11:00   8.6   8.9   203  40.3  35.5  83.0   29.40  1868
2017-03-20 10:00   6.2   6.8   200  37.6  34.5  88.6   29.40   966
2017-03-20 09:00   8.7   9.1   201  37.2  34.6  90.1   29.39   636
2017-03-20 08:00  10.5  10.9   190  36.9  34.1  89.5   29.40    35
2017-03-20 07:00  14.2  15.2   197  38.5  34.3  84.9   29.41     2
2017-03-20 06:00  10.5  12.4   175  41.2  34.6  77.3   29.39     2
2017-03-20 05:00   9.7  12.4   172  40.5  34.5  79.1   29.41     2
2017-03-20 04:00   7.6  11.9   150  39.2  34.5  83.0   29.45     2
2017-03-20 03:00   6.0   8.2   146  38.7  35.1  86.8   29.49     2
2017-03-20 02:00  12.8  14.2   174  38.7  34.5  84.8   29.50     2
2017-03-20 01:00   4.3   7.6   125  40.1  32.3  73.5   29.56     2
2017-03-20 00:00  19.1  22.4   179  41.0  32.4  71.2   29.45     2
2017-03-19 23:00  13.4  15.4   171  38.8  31.8  75.5   29.49     2
2017-03-19 22:00  10.9  12.4   167  38.8  30.6  71.9   29.54     2
2017-03-19 21:00  10.3  11.3   178  37.0  31.1  78.7   29.55     2
2017-03-19 20:00   8.9   9.5   178  36.7  31.1  80.1   29.57    10
2017-03-19 19:00   6.8   7.0   193  38.1  32.7  80.5   29.58   963
2017-03-19 18:00   4.3   5.1   214  39.6  32.5  75.7   29.61  1152
2017-03-19 17:00   6.6   7.0   247  37.6  32.1  80.3   29.63  1907
2017-03-19 16:00   7.0   7.6   265  37.8  32.2  80.0   29.68  1377
2017-03-19 15:00   7.2   8.0   251  37.0  31.6  80.3   29.69  2053
2017-03-19 14:00   4.3   4.9   278  38.3  31.7  76.9   29.73  2323
2017-03-19 13:00   4.7   4.9   274  36.7  31.7  81.8   29.74  1542
2017-03-19 12:00   3.3   5.4    84  37.8  28.5  68.9   29.75  1368
2017-03-19 11:00   1.9   2.1   323  36.0  31.7  84.4   29.76   648
2017-03-19 10:00   2.5   2.9    17  35.8  30.9  82.1   29.75   399
2017-03-19 09:00   5.2   6.4    28  34.0  30.7  87.7   29.74   149
2017-03-19 08:00   5.1   6.2    20  33.4  30.7  89.4   29.74    14
2017-03-19 07:00   6.6   7.2     5  33.8  31.0  89.5   29.72     2
2017-03-19 06:00   6.8   7.6     7  33.8  31.0  89.5   29.71     2
2017-03-19 05:00   3.7   4.7    25  34.3  31.4  88.8   29.69     2
2017-03-19 04:00   5.1   6.8    23  34.5  31.5  88.4   29.68     2
2017-03-19 03:00   3.3   3.9    14  34.9  31.7  87.9   29.67     2
2017-03-19 02:00   5.4   8.4    33  35.1  31.4  86.4   29.66     2
2017-03-19 01:00   6.4   8.6    30  35.4  32.0  87.1   29.66     2
2017-03-19 00:00   9.5  11.1    18  35.8  32.0  85.9   29.65     2
2017-03-18 23:00   9.9  11.5     7  36.1  32.2  85.4   29.64     2
2017-03-18 22:00   9.5  11.1    12  36.3  32.1  84.5   29.63     2
2017-03-18 21:00   8.9  11.9    10  37.0  33.4  86.4   29.61     2
2017-03-18 20:00  11.9  14.8   357  36.9  34.0  89.4   29.59     6